TimeEST,TemperatureF,Dew PointF,Humidity,Sea Level PressureIn,VisibilityMPH,Wind Direction,Wind SpeedMPH,Gust SpeedMPH,PrecipitationIn,Events,Conditions,WindDirDegrees,DateUTC
12:41 AM,15.8,10.4,79,29.57,10.0,North,9.2,-,N/A,,Overcast,350,2012-12-30 05:41:00
12:53 AM,14.0,10.9,88,29.62,10.0,North,10.4,-,N/A,,Overcast,360,2012-12-30 05:53:00
1:02 AM,14.0,10.4,86,29.57,10.0,North,10.4,-,N/A,,Overcast,350,2012-12-30 06:02:00
1:53 AM,14.0,10.9,88,29.61,7.0,North,6.9,-,0.00,Snow,Light Snow,350,2012-12-30 06:53:00
2:53 AM,14.0,10.9,88,29.58,3.0,North,9.2,-,0.00,Snow,Light Snow,350,2012-12-30 07:53:00
3:06 AM,14.0,10.4,86,29.52,2.0,North,11.5,-,0.00,Snow,Light Snow,350,2012-12-30 08:06:00
3:10 AM,14.0,10.4,86,29.52,1.8,North,10.4,-,0.00,Snow,Light Snow,350,2012-12-30 08:10:00
3:16 AM,14.0,10.4,86,29.52,1.2,North,9.2,-,0.00,Snow,Light Snow,350,2012-12-30 08:16:00
3:36 AM,14.0,10.4,86,29.51,1.2,North,11.5,-,0.00,Snow,Light Snow,360,2012-12-30 08:36:00
3:53 AM,14.0,10.9,88,29.55,1.5,North,11.5,-,0.00,Snow,Light Snow,350,2012-12-30 08:53:00
4:53 AM,15.1,10.9,84,29.52,1.5,North,16.1,-,0.00,Snow,Light Snow,350,2012-12-30 09:53:00
5:19 AM,15.8,12.2,86,29.46,1.8,North,15.0,21.9,0.00,Snow,Light Snow,350,2012-12-30 10:19:00
5:28 AM,15.8,12.2,86,29.46,2.0,North,15.0,23.0,0.00,Snow,Light Snow,350,2012-12-30 10:28:00
5:53 AM,15.1,12.0,88,29.51,1.5,North,13.8,-,0.00,Snow,Light Snow,350,2012-12-30 10:53:00
6:11 AM,15.8,12.2,86,29.46,1.8,NNW,12.7,-,0.00,Snow,Light Snow,340,2012-12-30 11:11:00
6:49 AM,15.8,12.2,86,29.46,2.0,NNW,11.5,-,0.00,Snow,Light Snow,340,2012-12-30 11:49:00
6:53 AM,16.0,12.9,88,29.51,2.0,NNW,11.5,-,0.00,Snow,Light Snow,340,2012-12-30 11:53:00
7:01 AM,15.8,12.2,86,29.45,1.8,NNW,13.8,20.7,0.00,Snow,Light Snow,340,2012-12-30 12:01:00
7:09 AM,15.8,12.2,86,29.46,1.5,North,13.8,20.7,0.00,Snow,Light Snow,350,2012-12-30 12:09:00
7:21 AM,15.8,12.2,86,29.46,1.2,NNW,16.1,-,0.00,Snow,Light Snow,340,2012-12-30 12:21:00
7:53 AM,17.1,12.9,84,29.49,1.5,NNW,17.3,23.0,0.00,Snow,Light Snow,340,2012-12-30 12:53:00
8:01 AM,17.6,12.2,79,29.44,1.0,NNW,17.3,26.5,0.00,Snow,Light Snow,340,2012-12-30 13:01:00
8:28 AM,17.6,14.0,86,29.42,0.8,NNW,21.9,25.3,0.00,Snow,Light Snow,340,2012-12-30 13:28:00
8:46 AM,17.6,14.0,86,29.41,1.0,NNW,19.6,29.9,0.00,Snow,Light Snow,340,2012-12-30 13:46:00
8:53 AM,18.0,14.0,84,29.46,1.2,NNW,19.6,26.5,0.00,Snow,Light Snow,340,2012-12-30 13:53:00
9:04 AM,17.6,14.0,86,29.41,1.5,NNW,20.7,27.6,0.00,Snow,Light Snow,340,2012-12-30 14:04:00
9:12 AM,17.6,14.0,86,29.41,1.2,NNW,21.9,31.1,0.00,Snow,Light Snow,340,2012-12-30 14:12:00
9:19 AM,17.6,14.0,86,29.41,1.5,NNW,18.4,28.8,0.00,Snow,Light Snow,340,2012-12-30 14:19:00
9:53 AM,19.0,15.1,85,29.46,1.2,NNW,19.6,31.1,0.00,Snow,Light Snow,340,2012-12-30 14:53:00
10:09 AM,19.4,15.8,86,29.41,0.8,NNW,21.9,28.8,0.00,Snow,Light Snow,340,2012-12-30 15:09:00
10:53 AM,18.0,14.0,84,29.44,0.5,NNW,25.3,32.2,0.01,Fog-Snow,Snow,330,2012-12-30 15:53:00
11:00 AM,17.6,14.0,86,29.40,0.5,NNW,21.9,34.5,0.00,Fog-Snow,Light Snow,330,2012-12-30 16:00:00
11:16 AM,17.6,14.0,86,29.39,0.8,NNW,19.6,29.9,0.00,Snow,Light Snow,330,2012-12-30 16:16:00
11:53 AM,17.1,12.9,84,29.43,0.8,NW,26.5,36.8,0.00,Snow,Light Snow,320,2012-12-30 16:53:00
12:07 PM,17.6,12.2,79,29.38,1.0,NW,21.9,32.2,0.00,Snow,Light Snow,320,2012-12-30 17:07:00
12:20 PM,15.8,12.2,86,29.38,1.2,NW,24.2,32.2,0.00,Snow,Light Snow,320,2012-12-30 17:20:00
12:36 PM,15.8,10.4,79,29.37,1.5,NNW,25.3,33.4,0.00,Snow,Light Snow,330,2012-12-30 17:36:00
12:53 PM,16.0,10.9,81,29.42,2.0,NNW,23.0,33.4,0.00,Snow,Light Snow,330,2012-12-30 17:53:00
1:00 PM,15.8,10.4,79,29.37,1.5,NW,24.2,35.7,0.00,Snow,Light Snow,320,2012-12-30 18:00:00
1:13 PM,15.8,10.4,79,29.37,2.0,NW,26.5,35.7,0.00,Snow,Light Snow,320,2012-12-30 18:13:00
1:28 PM,15.8,10.4,79,29.37,3.0,NW,21.9,35.7,0.00,Snow,Light Snow,320,2012-12-30 18:28:00
1:53 PM,15.1,9.0,77,29.42,4.0,NW,26.5,35.7,0.00,,Overcast,320,2012-12-30 18:53:00
2:53 PM,14.0,9.0,80,29.43,5.0,NNW,27.6,35.7,0.00,,Overcast,330,2012-12-30 19:53:00
3:53 PM,12.9,8.1,81,29.44,6.0,NW,27.6,35.7,0.00,,Overcast,320,2012-12-30 20:53:00
4:53 PM,12.0,7.0,80,29.46,7.0,NW,28.8,39.1,0.00,,Overcast,320,2012-12-30 21:53:00
5:53 PM,10.9,6.1,81,29.48,10.0,NW,25.3,34.5,0.00,,Overcast,320,2012-12-30 22:53:00
6:53 PM,10.9,3.9,73,29.50,10.0,NW,23.0,32.2,N/A,,Overcast,310,2012-12-30 23:53:00
7:53 PM,10.0,3.0,73,29.51,10.0,WNW,18.4,27.6,0.00,,Overcast,300,2012-12-31 00:53:00
8:53 PM,9.0,3.0,77,29.51,10.0,WNW,20.7,31.1,0.00,,Overcast,300,2012-12-31 01:53:00
9:17 PM,8.6,1.4,73,29.47,10.0,WNW,21.9,32.2,N/A,,Mostly Cloudy,300,2012-12-31 02:17:00
9:53 PM,9.0,3.0,77,29.52,10.0,NW,16.1,32.2,N/A,,Overcast,310,2012-12-31 02:53:00
10:53 PM,8.1,1.0,73,29.54,6.0,NW,23.0,35.7,0.00,,Mostly Cloudy,310,2012-12-31 03:53:00
11:53 PM,7.0,-0.0,73,29.55,8.0,NW,24.2,36.8,0.00,,Mostly Cloudy,310,2012-12-31 04:53:00